Time;durP1;ratioP1;P1;durP2;ratioP2;P2;SDS_P1;SDS_P2;PMS_P1;PMS_P2;Temp;Humidity;BMP_temperature;BMP_pressure;BME280_temperature;BME280_humidity;BME280_pressure;Samples;Min_cycle;Max_cycle;Signal;HPM_P1;HPM_P2
2023/04/08 00:01:10;;;;;;;3.70;3.10;;;16.60;61.40;17.60;101313.00;;;;5032088;28;20194;-48
2023/04/08 00:03:36;;;;;;;3.57;2.90;;;16.60;61.40;17.60;101311.00;;;;5030320;28;20163;-48
2023/04/08 00:06:02;;;;;;;2.93;2.63;;;16.60;61.40;17.60;101321.00;;;;5030430;28;20170;-54
2023/04/08 00:08:28;;;;;;;3.13;2.70;;;16.60;61.40;17.50;101332.00;;;;5031332;28;20175;-47
2023/04/08 00:10:54;;;;;;;2.90;2.70;;;16.60;61.40;17.50;101321.00;;;;5032961;28;20286;-47
2023/04/08 00:13:20;;;;;;;2.90;2.70;;;16.60;61.40;17.50;101313.00;;;;5039586;28;20171;-48
2023/04/08 00:15:45;;;;;;;3.50;3.10;;;16.60;61.40;17.50;101318.00;;;;5028739;28;20195;-48
2023/04/08 00:18:14;;;;;;;3.30;2.80;;;16.50;61.40;17.50;101315.00;;;;5028806;28;20201;-51
2023/04/08 00:20:40;;;;;;;3.10;2.80;;;16.50;61.30;17.50;101322.00;;;;5028503;28;20204;-47
2023/04/08 00:23:06;;;;;;;2.90;2.70;;;16.60;61.40;17.50;101321.00;;;;5028624;28;20257;-48
2023/04/08 00:25:31;;;;;;;2.90;2.70;;;16.50;61.30;17.50;101317.00;;;;5028448;28;20215;-48
2023/04/08 00:27:57;;;;;;;2.80;2.60;;;16.50;61.30;17.50;101321.00;;;;5028664;28;20179;-49
2023/04/08 00:30:23;;;;;;;3.67;2.70;;;16.50;61.30;17.50;101312.00;;;;5028275;28;20668;-47
2023/04/08 00:32:49;;;;;;;2.90;2.60;;;16.50;61.30;17.50;101311.00;;;;5026728;28;20652;-48
2023/04/08 00:35:14;;;;;;;3.20;2.90;;;16.50;61.30;17.50;101313.00;;;;5028004;28;20704;-47
2023/04/08 00:37:40;;;;;;;2.70;2.50;;;16.50;62.10;17.40;101311.00;;;;5028077;28;20198;-47
2023/04/08 00:40:06;;;;;;;3.27;2.63;;;16.50;61.30;17.50;101316.00;;;;5028260;28;20174;-48
2023/04/08 00:42:32;;;;;;;3.00;2.70;;;16.50;61.30;17.40;101319.00;;;;5027411;28;20261;-48
2023/04/08 00:44:58;;;;;;;3.10;2.80;;;16.50;61.30;17.40;101327.00;;;;5027963;28;20211;-50
2023/04/08 00:47:24;;;;;;;2.93;2.73;;;16.50;61.30;17.40;101322.00;;;;5028539;28;20190;-47
2023/04/08 00:49:50;;;;;;;3.33;2.70;;;16.40;61.10;17.40;101320.00;;;;5028431;28;20224;-50
2023/04/08 00:52:16;;;;;;;3.53;2.77;;;16.40;61.20;17.40;101315.00;;;;5028696;28;20180;-48
2023/04/08 00:54:42;;;;;;;3.17;2.67;;;16.50;61.10;17.40;101312.00;;;;5028075;28;20214;-48
2023/04/08 00:57:07;;;;;;;3.10;2.80;;;16.50;61.10;17.40;101308.00;;;;5028692;28;20223;-47
2023/04/08 00:59:35;;;;;;;2.80;2.60;;;16.40;61.00;17.40;101320.00;;;;5010596;28;20250;-48
2023/04/08 01:02:11;;;;;;;3.33;2.60;;;16.40;61.10;17.40;101320.00;;;;5026562;28;20665;-48
2023/04/08 01:04:49;;;;;;;2.80;2.60;;;16.40;61.10;17.40;101323.00;;;;5027682;28;20681;-49
2023/04/08 01:07:40;;;;;;;3.33;2.63;;;16.40;61.10;17.40;101327.00;;;;5034338;28;20220;-50
2023/04/08 01:10:12;;;;;;;2.80;2.60;;;16.40;61.10;17.10;101326.00;;;;5035298;28;20704;-50
2023/04/08 01:13:07;;;;;;;2.83;2.63;;;16.40;61.10;17.40;101341.00;;;;5034945;28;20189;-50
2023/04/08 01:15:34;;;;;;;2.70;2.50;;;16.40;61.10;17.40;101330.00;;;;5026626;28;20195;-48
2023/04/08 01:18:00;;;;;;;2.60;2.40;;;16.40;61.20;17.40;101318.00;;;;5026898;28;20199;-50
2023/04/08 01:20:26;;;;;;;2.80;2.60;;;16.40;61.10;17.40;101333.00;;;;5010342;28;20662;-49
2023/04/08 01:23:43;;;;;;;2.50;2.30;;;16.40;61.10;17.40;101331.00;;;;5028145;28;20846;-48
2023/04/08 01:26:11;;;;;;;2.60;2.40;;;16.30;61.10;17.30;101328.00;;;;5026854;28;20625;-50
2023/04/08 01:28:37;;;;;;;2.60;2.40;;;16.30;61.10;17.30;101329.00;;;;5009988;28;20172;-47
2023/04/08 01:31:02;;;;;;;2.50;2.30;;;16.40;61.30;17.30;101337.00;;;;5009864;28;20214;-48
2023/04/08 01:33:28;;;;;;;2.60;2.40;;;16.30;61.10;17.30;101344.00;;;;5010065;28;20190;-49
2023/04/08 01:35:55;;;;;;;2.87;2.57;;;16.30;61.10;17.30;101335.00;;;;5026692;28;20668;-48
2023/04/08 01:38:22;;;;;;;2.70;2.50;;;16.30;61.10;17.30;101338.00;;;;5010154;28;20545;-47
2023/04/08 01:40:47;;;;;;;2.70;2.47;;;16.30;61.10;17.30;101341.00;;;;5027711;28;20175;-48
2023/04/08 01:43:15;;;;;;;2.70;2.50;;;16.30;61.90;17.30;101333.00;;;;5026295;28;20178;-48
2023/04/08 01:45:43;;;;;;;2.63;2.43;;;16.30;61.10;17.30;101336.00;;;;5009919;28;20677;-48
2023/04/08 01:48:09;;;;;;;2.67;2.47;;;16.40;61.30;17.30;101349.00;;;;5026381;28;20175;-48
2023/04/08 01:50:34;;;;;;;3.37;2.40;;;16.30;61.10;17.30;101337.00;;;;5027521;28;20207;-48
2023/04/08 01:53:00;;;;;;;2.50;2.30;;;16.30;61.10;17.30;101341.00;;;;5026579;28;20260;-48
2023/04/08 01:55:26;;;;;;;2.50;2.30;;;16.30;61.10;17.30;101338.00;;;;5038776;28;20231;-49
2023/04/08 01:57:52;;;;;;;2.60;2.40;;;16.30;61.20;17.30;101344.00;;;;5018107;28;20215;-48
2023/04/08 02:00:24;;;;;;;2.67;2.47;;;16.20;61.20;17.30;101334.00;;;;5032463;28;20282;-48
2023/04/08 02:02:50;;;;;;;2.57;2.20;;;16.20;61.20;17.30;101344.00;;;;5019008;28;20171;-49
2023/04/08 02:05:16;;;;;;;2.60;2.40;;;16.30;61.30;17.30;101336.00;;;;5040554;28;20712;-48
2023/04/08 02:07:41;;;;;;;2.50;2.30;;;16.30;61.20;17.20;101345.00;;;;5036756;28;20191;-48
2023/04/08 02:10:08;;;;;;;2.47;2.27;;;16.20;61.10;17.20;101351.00;;;;5040894;28;20191;-48
2023/04/08 02:12:33;;;;;;;2.60;2.40;;;16.30;61.30;17.20;101343.00;;;;5032485;28;20179;-48
2023/04/08 02:14:59;;;;;;;2.50;2.30;;;16.20;61.20;17.20;101337.00;;;;5013928;28;20279;-48
2023/04/08 02:17:45;;;;;;;2.60;2.40;;;16.30;61.30;17.20;101341.00;;;;5031444;28;20233;-48
2023/04/08 02:20:38;;;;;;;2.50;2.30;;;16.30;61.30;17.20;101349.00;;;;5029714;28;20256;-49
2023/04/08 02:23:15;;;;;;;2.50;2.30;;;16.20;61.20;17.20;101352.00;;;;5023997;28;20209;-47
2023/04/08 02:25:43;;;;;;;2.70;2.50;;;16.20;61.20;17.20;101347.00;;;;5030914;28;20301;-48
2023/04/08 02:28:10;;;;;;;2.60;2.40;;;16.20;61.20;17.20;101339.00;;;;5031947;28;20556;-48
2023/04/08 02:30:36;;;;;;;2.43;2.23;;;16.20;61.20;17.20;101346.00;;;;5030833;28;20211;-48
2023/04/08 02:33:05;;;;;;;2.40;2.20;;;16.20;61.20;17.20;101348.00;;;;5030576;28;20182;-47
2023/04/08 02:35:31;;;;;;;2.23;2.13;;;16.20;62.00;17.20;101346.00;;;;5029545;28;20195;-48
2023/04/08 02:37:56;;;;;;;2.53;2.33;;;16.20;61.20;17.20;101342.00;;;;5029910;28;20222;-47
2023/04/08 02:40:23;;;;;;;2.50;2.30;;;16.20;61.10;17.20;101342.00;;;;5031310;28;20179;-48
2023/04/08 02:42:49;;;;;;;2.40;2.20;;;16.20;61.20;17.20;101350.00;;;;5031117;28;20583;-48
2023/04/08 02:45:15;;;;;;;2.57;2.37;;;16.10;61.20;17.10;101358.00;;;;5031313;28;20202;-48
2023/04/08 02:47:41;;;;;;;2.57;2.30;;;16.20;61.30;17.10;101345.00;;;;5031060;28;20202;-49
2023/04/08 02:50:07;;;;;;;2.60;2.40;;;16.20;61.30;17.10;101348.00;;;;5030800;28;20722;-50
2023/04/08 02:52:32;;;;;;;2.77;2.57;;;16.10;61.20;17.10;101360.00;;;;5030632;28;20176;-47
2023/04/08 02:54:58;;;;;;;2.60;2.40;;;16.20;61.30;17.10;101359.00;;;;5030896;28;20340;-50
2023/04/08 02:57:24;;;;;;;2.50;2.30;;;16.10;61.20;17.10;101350.00;;;;5030974;28;20542;-47
2023/04/08 02:59:50;;;;;;;2.50;2.30;;;16.20;61.30;17.10;101349.00;;;;5031011;28;20175;-48
2023/04/08 03:02:16;;;;;;;2.50;2.30;;;16.10;61.20;17.10;101344.00;;;;5030913;28;20178;-48
2023/04/08 03:04:42;;;;;;;2.50;2.30;;;16.10;61.20;17.10;101363.00;;;;5030994;28;20198;-48
2023/04/08 03:07:07;;;;;;;2.70;2.50;;;16.10;61.20;17.10;101360.00;;;;5029941;28;20321;-48
2023/04/08 03:09:33;;;;;;;2.40;2.20;;;16.10;61.90;17.10;101361.00;;;;5030534;28;20201;-48
2023/04/08 03:11:59;;;;;;;2.63;2.43;;;16.10;62.20;17.10;101363.00;;;;5030833;28;20547;-49
2023/04/08 03:14:24;;;;;;;2.80;2.60;;;16.20;62.30;17.10;101352.00;;;;5030204;28;20191;-48
2023/04/08 03:16:50;;;;;;;2.50;2.30;;;16.10;62.50;17.10;101352.00;;;;5030677;28;20697;-48
2023/04/08 03:19:16;;;;;;;2.40;2.20;;;16.00;62.40;17.10;101365.00;;;;5030189;28;20522;-47
2023/04/08 03:21:42;;;;;;;2.60;2.40;;;16.10;62.50;17.10;101358.00;;;;5030252;28;20174;-49
2023/04/08 03:24:07;;;;;;;2.73;2.53;;;16.10;62.40;17.10;101360.00;;;;5029954;28;20206;-47
2023/04/08 03:26:33;;;;;;;2.53;2.33;;;16.10;62.20;17.10;101352.00;;;;5030305;28;20187;-48
2023/04/08 03:28:59;;;;;;;2.53;2.33;;;16.10;62.20;17.10;101364.00;;;;5029987;28;20183;-48
2023/04/08 03:31:25;;;;;;;2.83;2.43;;;16.10;62.30;17.10;101360.00;;;;5030585;28;20182;-47
2023/04/08 03:33:50;;;;;;;2.60;2.40;;;16.10;62.30;17.10;101365.00;;;;5029772;28;20298;-49
2023/04/08 03:36:16;;;;;;;3.30;2.57;;;16.10;62.50;17.00;101377.00;;;;5030119;28;20172;-48
2023/04/08 03:38:43;;;;;;;2.93;2.50;;;16.10;62.30;17.00;101362.00;;;;5030263;28;20756;-49
2023/04/08 03:41:09;;;;;;;3.67;2.57;;;16.10;62.10;17.00;101374.00;;;;5029823;28;20583;-48
2023/04/08 03:43:35;;;;;;;3.10;2.20;;;16.10;62.10;17.00;101374.00;;;;5048768;28;20207;-49
2023/04/08 03:46:01;;;;;;;3.43;2.60;;;16.10;62.10;17.00;101371.00;;;;5050201;28;20182;-48
2023/04/08 03:48:27;;;;;;;3.20;2.50;;;16.00;62.00;17.00;101366.00;;;;5038576;28;20274;-48
2023/04/08 03:50:52;;;;;;;5.10;2.77;;;16.00;61.90;17.00;101366.00;;;;5037085;28;20608;-47
2023/04/08 03:53:18;;;;;;;3.20;2.90;;;16.10;62.00;17.00;101365.00;;;;5038489;28;20199;-48
2023/04/08 03:55:44;;;;;;;3.73;3.40;;;16.10;62.00;17.00;101374.00;;;;5030921;28;20263;-47
2023/04/08 03:58:10;;;;;;;6.90;3.70;;;16.00;61.70;17.00;101370.00;;;;5030971;28;20197;-48
2023/04/08 04:00:36;;;;;;;4.80;4.10;;;16.00;61.70;17.00;101373.00;;;;5031645;28;20257;-48
2023/04/08 04:03:01;;;;;;;4.23;3.83;;;16.00;61.70;17.00;101367.00;;;;5031141;28;20211;-50
2023/04/08 04:05:28;;;;;;;4.70;4.20;;;16.00;61.60;17.00;101366.00;;;;5038287;28;20271;-47
2023/04/08 04:07:53;;;;;;;5.20;4.30;;;16.00;61.60;17.00;101367.00;;;;5035213;28;20182;-50
2023/04/08 04:10:19;;;;;;;5.27;4.67;;;16.00;61.60;17.00;101370.00;;;;5029191;28;20564;-48
2023/04/08 04:12:46;;;;;;;4.83;4.43;;;16.00;61.60;16.90;101368.00;;;;5029310;28;20171;-49
2023/04/08 04:15:12;;;;;;;5.57;4.87;;;16.00;61.60;16.90;101366.00;;;;5029314;28;20848;-48
2023/04/08 04:17:37;;;;;;;7.23;5.30;;;16.00;61.50;16.90;101363.00;;;;5028056;28;20178;-49
2023/04/08 04:20:05;;;;;;;7.40;6.07;;;15.90;61.60;16.90;101362.00;;;;5023147;28;20179;-49
2023/04/08 04:22:31;;;;;;;6.03;5.43;;;15.90;61.70;16.90;101216.00;;;;5016363;28;20179;-48
2023/04/08 04:24:56;;;;;;;6.10;5.60;;;16.00;61.90;16.90;101379.00;;;;5008891;28;20560;-48
2023/04/08 04:27:22;;;;;;;6.13;5.53;;;15.90;61.80;16.90;101382.00;;;;5008881;28;20184;-48
2023/04/08 04:29:48;;;;;;;6.87;5.73;;;15.90;62.00;16.90;101383.00;;;;5008949;28;20565;-49
2023/04/08 04:32:14;;;;;;;9.73;6.33;;;15.90;62.00;16.90;101384.00;;;;5009720;28;20167;-48
2023/04/08 04:34:39;;;;;;;9.40;6.27;;;15.90;62.00;16.90;101395.00;;;;5009707;28;20187;-48
2023/04/08 04:37:05;;;;;;;6.90;6.20;;;15.90;62.00;16.90;101393.00;;;;5009943;28;20202;-48
2023/04/08 04:39:31;;;;;;;7.20;6.30;;;15.90;62.70;16.90;101400.00;;;;5021970;28;20176;-48
2023/04/08 04:41:57;;;;;;;7.20;6.50;;;15.90;61.80;16.90;101405.00;;;;5023099;28;20186;-53
2023/04/08 04:44:23;;;;;;;9.43;7.30;;;15.90;61.80;16.90;101404.00;;;;5013083;28;20206;-48
2023/04/08 04:46:48;;;;;;;7.63;6.83;;;15.90;61.80;16.90;101410.00;;;;5010724;28;20186;-49
2023/04/08 04:49:14;;;;;;;7.13;6.53;;;15.90;61.70;16.90;101400.00;;;;5009704;28;20192;-49
2023/04/08 04:51:40;;;;;;;8.20;7.03;;;15.90;61.70;16.90;101405.00;;;;5009947;28;20198;-50
2023/04/08 04:54:05;;;;;;;8.03;7.17;;;15.90;61.70;16.90;101412.00;;;;5009103;28;20194;-49
2023/04/08 04:56:31;;;;;;;8.07;7.13;;;15.90;61.70;16.90;101408.00;;;;5009034;28;20219;-49
2023/04/08 04:58:57;;;;;;;7.83;7.03;;;15.90;61.80;16.90;101402.00;;;;5009768;28;20168;-49
2023/04/08 05:01:22;;;;;;;8.00;7.20;;;15.90;61.70;16.80;101398.00;;;;5009563;28;20176;-48
2023/04/08 05:03:48;;;;;;;8.20;6.97;;;15.90;61.70;16.80;101403.00;;;;5009465;28;20759;-48
2023/04/08 05:06:14;;;;;;;8.53;7.63;;;15.90;61.80;16.80;101401.00;;;;5008633;28;20713;-49
2023/04/08 05:08:40;;;;;;;8.10;7.30;;;15.90;61.80;16.80;101405.00;;;;5009831;28;20233;-49
2023/04/08 05:11:09;;;;;;;7.97;7.27;;;15.90;61.70;16.80;101413.00;;;;5009367;28;20199;-48
2023/04/08 05:13:35;;;;;;;8.07;7.27;;;15.90;61.60;16.80;101409.00;;;;5008251;28;20180;-48
2023/04/08 05:16:01;;;;;;;7.57;6.87;;;15.80;61.50;16.80;101411.00;;;;5009031;28;20171;-49
2023/04/08 05:18:26;;;;;;;8.40;7.47;;;15.80;61.50;16.80;101419.00;;;;5015995;28;20639;-50
2023/04/08 05:20:52;;;;;;;8.43;7.63;;;15.80;61.50;16.80;101421.00;;;;5016264;28;20172;-48
2023/04/08 05:23:18;;;;;;;8.07;7.27;;;15.80;61.60;16.80;101421.00;;;;5016351;28;20168;-47
2023/04/08 05:25:44;;;;;;;8.30;7.50;;;15.80;61.60;16.80;101424.00;;;;5008972;28;20469;-47
2023/04/08 05:28:09;;;;;;;9.10;8.17;;;15.80;61.60;16.80;101431.00;;;;5009575;28;20556;-47
2023/04/08 05:30:35;;;;;;;8.30;7.50;;;15.80;61.50;16.80;101436.00;;;;5012157;28;20207;-47
2023/04/08 05:33:01;;;;;;;7.57;6.83;;;15.80;61.60;16.80;101431.00;;;;5012931;28;20180;-48
2023/04/08 05:35:27;;;;;;;8.40;7.60;;;15.80;61.60;16.80;101430.00;;;;5021787;28;20186;-48
2023/04/08 05:37:53;;;;;;;8.30;7.50;;;15.80;61.70;16.70;101428.00;;;;5031988;28;20174;-48
2023/04/08 05:40:19;;;;;;;8.73;7.90;;;15.80;61.60;16.70;101432.00;;;;5032782;28;20179;-48
2023/04/08 05:42:45;;;;;;;8.30;7.50;;;15.80;61.60;16.70;101431.00;;;;5032250;28;20175;-47
2023/04/08 05:45:10;;;;;;;8.23;7.47;;;15.80;61.60;16.70;101438.00;;;;5032257;28;20217;-48
2023/04/08 05:47:36;;;;;;;8.20;7.50;;;15.70;61.40;16.70;101447.00;;;;5042767;28;20167;-48
2023/04/08 05:50:02;;;;;;;8.63;7.83;;;15.80;61.60;16.70;101443.00;;;;5041908;28;20199;-48
2023/04/08 05:52:28;;;;;;;8.10;7.30;;;15.80;61.50;16.70;101449.00;;;;5034712;28;20164;-49
2023/04/08 05:54:53;;;;;;;8.00;7.30;;;15.80;61.50;16.70;101447.00;;;;5033214;28;20190;-48
2023/04/08 05:57:19;;;;;;;8.30;7.50;;;15.70;61.40;16.70;101452.00;;;;5033511;28;20170;-49
2023/04/08 05:59:45;;;;;;;8.67;7.87;;;15.80;61.50;16.70;101450.00;;;;5034448;28;20186;-49
2023/04/08 06:02:10;;;;;;;8.13;7.43;;;15.70;61.40;16.70;101456.00;;;;5041858;28;20179;-50
2023/04/08 06:04:36;;;;;;;8.33;7.53;;;15.70;61.40;16.70;101458.00;;;;5037027;28;20191;-47
2023/04/08 06:07:03;;;;;;;8.40;7.70;;;15.70;62.20;16.70;101461.00;;;;5031618;28;20515;-48
2023/04/08 06:09:29;;;;;;;8.07;7.37;;;15.70;61.50;16.70;101455.00;;;;5032294;28;20277;-48
2023/04/08 06:11:56;;;;;;;8.67;7.87;;;15.70;61.50;16.70;101452.00;;;;5032384;28;20588;-48
2023/04/08 06:14:22;;;;;;;8.23;7.43;;;15.70;61.50;16.70;101467.00;;;;5031759;28;20198;-48
2023/04/08 06:16:47;;;;;;;8.50;7.70;;;15.70;61.40;16.70;101465.00;;;;5031399;28;20175;-50
2023/04/08 06:19:13;;;;;;;8.73;7.93;;;15.70;61.40;16.70;101466.00;;;;5031994;28;20190;-48
2023/04/08 06:21:39;;;;;;;8.53;7.73;;;15.70;61.40;16.60;101466.00;;;;5032493;28;20708;-48
2023/04/08 06:24:05;;;;;;;8.13;7.43;;;15.70;61.40;16.60;101474.00;;;;5031897;28;20716;-47
2023/04/08 06:26:30;;;;;;;8.40;7.70;;;15.70;61.40;16.60;101467.00;;;;5031495;28;20197;-48
2023/04/08 06:28:56;;;;;;;8.90;8.10;;;15.70;61.40;16.60;101481.00;;;;5031878;28;20648;-49
2023/04/08 06:31:22;;;;;;;8.63;7.83;;;15.70;61.40;16.60;101473.00;;;;5031586;28;20174;-48
2023/04/08 06:33:47;;;;;;;9.47;8.50;;;15.70;61.50;16.60;101484.00;;;;5031714;28;20191;-50
2023/04/08 06:36:13;;;;;;;8.93;8.07;;;15.60;61.40;16.60;101491.00;;;;5031661;28;20167;-47
2023/04/08 06:38:39;;;;;;;8.77;7.97;;;15.70;61.50;16.60;101492.00;;;;5031977;28;20167;-47
2023/04/08 06:41:05;;;;;;;9.47;8.57;;;15.60;61.40;16.60;101486.00;;;;5030829;28;20171;-49
2023/04/08 06:43:31;;;;;;;9.33;8.43;;;15.60;61.60;16.60;101493.00;;;;5038961;28;20225;-52
2023/04/08 06:45:57;;;;;;;8.73;7.93;;;15.60;61.90;16.60;101489.00;;;;5047403;28;20238;-50
2023/04/08 06:48:29;;;;;;;8.80;8.00;;;15.60;61.70;16.60;101494.00;;;;5039222;28;20209;-48
2023/04/08 06:50:55;;;;;;;9.17;8.27;;;15.70;61.70;16.60;101490.00;;;;5032221;28;20286;-48
2023/04/08 06:53:25;;;;;;;8.90;8.10;;;15.60;61.50;16.60;101491.00;;;;5031625;28;20167;-48
2023/04/08 06:55:50;;;;;;;8.10;7.40;;;15.60;61.50;16.60;101500.00;;;;5029600;28;20213;-54
2023/04/08 06:58:16;;;;;;;8.40;7.60;;;15.60;61.50;16.60;101499.00;;;;5032088;28;20530;-48
2023/04/08 07:00:42;;;;;;;8.40;7.63;;;15.60;61.50;16.60;101505.00;;;;5031486;28;20182;-49
2023/04/08 07:03:08;;;;;;;8.50;7.70;;;15.60;61.40;16.50;101505.00;;;;5032689;28;20242;-48
2023/04/08 07:05:37;;;;;;;8.93;8.03;;;15.60;61.40;16.50;101504.00;;;;5031236;28;20268;-47
2023/04/08 07:08:04;;;;;;;8.30;7.50;;;15.60;61.40;16.40;101501.00;;;;5031515;28;20167;-50
2023/04/08 07:10:30;;;;;;;8.60;7.80;;;15.60;61.40;16.50;101501.00;;;;5031262;28;20187;-49
2023/04/08 07:12:55;;;;;;;8.10;7.30;;;15.60;61.40;16.50;101500.00;;;;5031377;28;20221;-48
2023/04/08 07:15:21;;;;;;;8.77;7.97;;;15.60;61.40;16.50;101509.00;;;;5037936;28;20195;-49
2023/04/08 07:17:47;;;;;;;8.33;7.53;;;15.50;61.20;16.50;101506.00;;;;5032864;28;20178;-49
2023/04/08 07:20:12;;;;;;;8.50;7.70;;;15.50;61.30;16.50;101514.00;;;;5031298;28;20186;-49
2023/04/08 07:22:39;;;;;;;8.40;7.60;;;15.50;61.20;16.50;101516.00;;;;5030837;28;20257;-51
2023/04/08 07:25:05;;;;;;;8.40;7.67;;;15.60;61.30;16.50;101517.00;;;;5030373;28;20195;-48
2023/04/08 07:27:35;;;;;;;8.30;7.50;;;15.50;61.20;16.50;101526.00;;;;5030848;28;20206;-47
2023/04/08 07:30:01;;;;;;;8.53;7.83;;;15.50;61.20;16.50;101522.00;;;;5030167;28;20692;-49
2023/04/08 07:32:27;;;;;;;8.47;7.67;;;15.50;61.20;16.50;101523.00;;;;5030369;28;20191;-48
2023/04/08 07:34:53;;;;;;;7.83;7.13;;;15.50;61.20;16.40;101531.00;;;;5031431;28;20254;-49
2023/04/08 07:37:19;;;;;;;8.60;7.80;;;15.50;61.20;16.40;101537.00;;;;5030268;28;20170;-49
2023/04/08 07:39:45;;;;;;;8.07;7.37;;;15.50;61.20;16.40;101534.00;;;;5030352;28;20187;-49
2023/04/08 07:42:10;;;;;;;8.33;7.53;;;15.50;61.20;16.40;101534.00;;;;5024184;28;20167;-47
2023/04/08 07:44:37;;;;;;;8.50;7.70;;;15.50;61.30;16.40;101540.00;;;;5038963;28;20203;-48
2023/04/08 07:47:03;;;;;;;8.57;7.07;;;15.50;61.30;16.40;101537.00;;;;5037752;28;20230;-47
2023/04/08 07:49:28;;;;;;;8.53;7.33;;;15.50;61.20;16.40;101536.00;;;;5032678;28;20284;-48
2023/04/08 07:51:54;;;;;;;9.73;7.07;;;15.50;61.10;16.40;101551.00;;;;5032296;28;20179;-48
2023/04/08 07:54:20;;;;;;;7.70;6.90;;;15.50;61.20;16.40;101546.00;;;;5031988;28;20195;-48
2023/04/08 07:56:46;;;;;;;8.47;6.77;;;15.50;61.10;16.40;101549.00;;;;5033816;28;20185;-48
2023/04/08 07:59:11;;;;;;;8.93;6.60;;;15.50;61.10;16.40;101544.00;;;;5047048;28;20178;-48
2023/04/08 08:01:37;;;;;;;7.60;6.80;;;15.50;61.20;16.40;101557.00;;;;5033038;28;20194;-48
2023/04/08 08:04:03;;;;;;;10.27;6.63;;;15.50;61.30;16.40;101558.00;;;;5030123;28;20194;-49
2023/04/08 08:06:31;;;;;;;12.10;6.10;;;15.40;61.60;16.40;101553.00;;;;5030552;28;20210;-50
2023/04/08 08:08:57;;;;;;;13.73;6.07;;;15.50;62.60;16.40;101568.00;;;;5030254;28;20175;-49
2023/04/08 08:11:23;;;;;;;9.47;6.70;;;15.50;63.20;16.40;101565.00;;;;5029970;28;20268;-51
2023/04/08 08:13:48;;;;;;;11.00;6.00;;;15.40;63.30;16.40;101561.00;;;;5030072;28;20203;-51
2023/04/08 08:16:14;;;;;;;9.50;6.10;;;15.50;63.40;16.40;101561.00;;;;5029788;28;20182;-49
2023/04/08 08:18:40;;;;;;;8.40;6.07;;;15.60;63.30;16.50;101566.00;;;;5030092;28;20175;-49
2023/04/08 08:21:06;;;;;;;11.10;5.27;;;15.80;63.00;16.60;101578.00;;;;5029829;28;20716;-52
2023/04/08 08:23:32;;;;;;;8.57;5.57;;;15.90;63.00;16.70;101563.00;;;;5030638;28;20236;-48
2023/04/08 08:26:01;;;;;;;9.83;4.90;;;16.00;62.80;16.80;101573.00;;;;5031326;28;20194;-51
2023/04/08 08:28:27;;;;;;;7.80;4.60;;;16.10;62.50;16.90;101574.00;;;;5031516;28;20183;-48
2023/04/08 08:30:54;;;;;;;8.13;4.40;;;16.30;62.50;16.90;101584.00;;;;5030718;28;20310;-48
2023/04/08 08:33:20;;;;;;;9.27;4.77;;;16.30;62.20;17.00;101580.00;;;;5030570;28;20689;-50
2023/04/08 08:35:46;;;;;;;5.43;4.37;;;16.40;62.10;17.10;101583.00;;;;5030593;28;20272;-52
2023/04/08 08:38:12;;;;;;;5.67;4.40;;;16.50;62.40;17.10;101582.00;;;;5030792;28;20181;-49
2023/04/08 08:40:38;;;;;;;6.03;4.40;;;16.50;62.20;17.20;101580.00;;;;5030286;28;20186;-50
2023/04/08 08:43:04;;;;;;;5.50;4.27;;;16.60;62.20;17.30;101574.00;;;;5011348;28;20174;-48
2023/04/08 08:45:30;;;;;;;6.17;4.47;;;16.70;62.10;17.30;101577.00;;;;5030029;28;20194;-52
2023/04/08 08:47:56;;;;;;;5.17;4.67;;;16.60;61.90;17.30;101576.00;;;;5030089;28;20775;-49
2023/04/08 08:50:22;;;;;;;6.97;4.17;;;16.70;62.00;17.40;101573.00;;;;5015569;28;20204;-50
2023/04/08 08:52:51;;;;;;;4.90;4.27;;;16.70;62.40;17.40;101571.00;;;;5009797;28;20708;-49
2023/04/08 08:55:20;;;;;;;5.30;4.00;;;16.70;62.40;17.50;101572.00;;;;5009922;28;20200;-50
2023/04/08 08:57:47;;;;;;;5.33;4.07;;;16.80;62.50;17.50;101578.00;;;;5010454;28;20181;-49
2023/04/08 09:00:15;;;;;;;4.50;4.10;;;16.80;62.50;17.50;101582.00;;;;5008948;28;20739;-48
2023/04/08 09:02:40;;;;;;;4.57;3.77;;;16.80;62.60;17.60;101586.00;;;;5008719;28;20650;-50
2023/04/08 09:05:06;;;;;;;5.40;3.63;;;16.80;62.80;17.60;101590.00;;;;5009231;28;20202;-49
2023/04/08 09:07:35;;;;;;;5.70;3.90;;;16.80;62.70;17.60;101595.00;;;;5010345;28;20768;-50
2023/04/08 09:10:01;;;;;;;5.17;4.13;;;16.80;62.70;17.60;101583.00;;;;5010479;28;20294;-49
2023/04/08 09:12:27;;;;;;;5.53;4.23;;;16.80;62.90;17.60;101594.00;;;;5009959;28;20172;-50
2023/04/08 09:15:07;;;;;;;4.90;4.13;;;16.80;63.30;17.70;101590.00;;;;4992749;28;20189;-50
2023/04/08 09:17:37;;;;;;;4.47;4.07;;;16.80;63.30;17.70;101593.00;;;;5010106;28;20172;-49
2023/04/08 09:20:08;;;;;;;4.57;3.87;;;16.80;63.20;17.70;101595.00;;;;5010152;28;20183;-50
2023/04/08 09:22:55;;;;;;;5.70;3.97;;;16.80;63.30;17.70;101600.00;;;;5009928;28;20210;-48
2023/04/08 09:25:30;;;;;;;4.27;3.87;;;16.80;63.30;17.70;101606.00;;;;5009299;28;20209;-50
2023/04/08 09:27:56;;;;;;;5.40;3.73;;;16.80;63.30;17.70;101588.00;;;;5019339;28;20677;-49
2023/04/08 09:30:23;;;;;;;4.40;4.00;;;16.90;63.40;17.70;101586.00;;;;5019705;28;20286;-49
2023/04/08 09:32:53;;;;;;;4.13;3.67;;;16.90;63.30;17.80;101588.00;;;;5018903;28;20312;-49
2023/04/08 09:35:19;;;;;;;5.67;4.20;;;16.90;63.40;17.80;101589.00;;;;5009949;28;20207;-51
2023/04/08 09:37:45;;;;;;;4.10;3.80;;;16.90;63.50;17.80;101594.00;;;;5010071;28;20177;-49
2023/04/08 09:40:11;;;;;;;4.57;4.17;;;17.00;63.10;17.80;101596.00;;;;5010364;28;20184;-48
2023/04/08 09:42:39;;;;;;;6.00;4.00;;;17.00;63.30;17.80;101602.00;;;;5014207;28;20182;-49
2023/04/08 09:45:06;;;;;;;4.07;3.77;;;17.00;63.00;17.90;101597.00;;;;5016255;28;20569;-49
2023/04/08 09:47:38;;;;;;;3.80;3.50;;;17.00;63.10;17.90;101600.00;;;;5018337;28;20199;-48
2023/04/08 09:50:04;;;;;;;4.37;3.97;;;17.10;63.00;17.90;101593.00;;;;4993978;28;20199;-50
2023/04/08 09:52:33;;;;;;;4.03;3.73;;;17.20;63.00;18.00;101603.00;;;;4993677;28;20182;-48
2023/04/08 09:55:03;;;;;;;4.70;3.70;;;17.20;62.80;18.00;101595.00;;;;5010324;28;20188;-50
2023/04/08 09:57:50;;;;;;;4.90;3.90;;;17.30;62.70;18.10;101595.00;;;;5021259;28;20180;-50
2023/04/08 10:00:16;;;;;;;5.40;3.87;;;17.40;62.60;18.10;101589.00;;;;5004021;28;20267;-49
2023/04/08 10:02:59;;;;;;;4.70;4.00;;;17.40;62.40;18.20;101594.00;;;;5011255;28;20224;-49
2023/04/08 10:05:24;;;;;;;5.37;4.10;;;17.50;62.50;18.20;101603.00;;;;4993218;28;20282;-49
2023/04/08 10:07:50;;;;;;;8.37;4.07;;;17.60;63.30;18.30;101595.00;;;;4992939;28;20266;-49
2023/04/08 10:10:16;;;;;;;8.27;4.30;;;17.60;64.00;18.30;101588.00;;;;5010225;28;20204;-50
2023/04/08 10:12:42;;;;;;;9.00;4.20;;;17.60;64.10;18.30;101593.00;;;;5008506;28;20177;-48
2023/04/08 10:15:31;;;;;;;7.10;4.70;;;17.60;64.10;18.40;101599.00;;;;5009448;28;20198;-51
2023/04/08 10:18:05;;;;;;;10.20;4.20;;;17.60;64.20;18.40;101592.00;;;;5013579;28;20172;-49
2023/04/08 10:20:34;;;;;;;11.33;4.60;;;17.60;64.40;18.40;101596.00;;;;5013183;28;20179;-48
2023/04/08 10:23:07;;;;;;;9.17;4.43;;;17.60;64.80;18.40;101599.00;;;;5013143;28;20190;-49
2023/04/08 10:25:42;;;;;;;10.57;4.80;;;17.60;65.20;18.40;101601.00;;;;5013571;28;20208;-49
2023/04/08 10:28:10;;;;;;;10.57;4.70;;;17.60;65.00;18.40;101603.00;;;;5012772;28;20624;-48
2023/04/08 10:30:52;;;;;;;11.03;4.97;;;17.70;65.20;18.40;101604.00;;;;5012933;28;20238;-49
2023/04/08 10:33:38;;;;;;;16.80;5.80;;;17.70;65.70;18.50;101605.00;;;;5012847;28;20170;-49
2023/04/08 10:36:11;;;;;;;11.10;5.30;;;17.70;66.20;18.40;101594.00;;;;5013100;28;20178;-49
2023/04/08 10:38:41;;;;;;;10.77;5.53;;;17.70;66.20;18.50;101604.00;;;;5012985;28;20186;-50
2023/04/08 10:41:09;;;;;;;13.63;5.20;;;17.70;66.60;18.40;101607.00;;;;5013182;28;20197;-49
2023/04/08 10:43:35;;;;;;;11.87;5.07;;;17.60;65.80;18.50;101606.00;;;;4995398;28;20202;-49
2023/04/08 10:46:03;;;;;;;6.73;4.27;;;17.70;65.60;18.50;101609.00;;;;5012608;28;20184;-49
2023/04/08 10:48:29;;;;;;;9.37;4.53;;;17.60;65.40;18.50;101604.00;;;;5012691;28;20191;-49